Time;durP1;ratioP1;P1;durP2;ratioP2;P2;SDS_P1;SDS_P2;PMS_P1;PMS_P2;Temp;Humidity;BMP_temperature;BMP_pressure;BME280_temperature;BME280_humidity;BME280_pressure;Samples;Min_cycle;Max_cycle;Signal;HPM_P1;HPM_P2
2021/12/05 00:17:24;;;;;;;27.05;18.92;;;;;;;0.66;100.00;99076.91;5041983;28;20584;-65
2021/12/05 00:20:02;;;;;;;30.38;19.50;;;;;;;0.59;100.00;99078.94;5060044;28;20057;-66
2021/12/05 00:22:35;;;;;;;29.10;18.48;;;;;;;0.56;100.00;99085.97;5069610;28;20081;-63
2021/12/05 00:25:05;;;;;;;28.77;17.92;;;;;;;0.55;100.00;99079.97;5075387;28;20059;-64
2021/12/05 00:27:42;;;;;;;26.90;17.90;;;;;;;0.51;100.00;99088.75;5065281;28;20056;-64
2021/12/05 00:33:28;;;;;;;26.77;18.52;;;;;;;0.48;100.00;99091.47;5067773;28;20072;-62
2021/12/05 00:57:44;;;;;;;24.90;17.60;;;;;;;0.56;100.00;99114.47;5074695;28;20066;-62
2021/12/05 01:03:17;;;;;;;24.85;16.27;;;;;;;0.55;100.00;99116.22;5079135;28;20155;-64
2021/12/05 01:08:44;;;;;;;;;;;;;;;0.58;100.00;99117.81;5064139;28;20052;-64
2021/12/05 01:11:24;;;;;;;23.77;16.25;;;;;;;0.52;100.00;99118.09;5074362;28;20403;-64
2021/12/05 01:14:09;;;;;;;26.08;17.45;;;;;;;0.50;100.00;99116.41;5065018;28;20419;-64
2021/12/05 01:16:38;;;;;;;23.98;17.63;;;;;;;0.50;100.00;99116.41;5078754;28;20083;-65
2021/12/05 01:19:07;;;;;;;25.23;16.98;;;;;;;0.54;100.00;99121.44;5075598;28;20087;-64
2021/12/05 01:21:37;;;;;;;24.98;16.77;;;;;;;0.52;100.00;99120.66;5081977;28;20317;-65
2021/12/05 01:24:16;;;;;;;27.80;17.27;;;;;;;0.55;100.00;99116.22;5081680;28;20085;-65
2021/12/05 01:29:42;;;;;;;28.27;18.08;;;;;;;0.48;100.00;99122.53;5072274;28;20056;-64
2021/12/05 01:32:43;;;;;;;26.85;17.85;;;;;;;0.48;100.00;99133.72;5078919;28;20074;-62
2021/12/05 01:36:17;;;;;;;28.13;19.27;;;;;;;0.53;100.00;99128.38;5075502;28;20066;-65
2021/12/05 01:38:15;;;;;;;;;;;;;;;0.54;100.00;99140.44;5068985;28;20139;-64
2021/12/05 01:40:56;;;;;;;30.40;18.33;;;;;;;0.53;100.00;99132.69;5091263;28;20406;-65
2021/12/05 01:51:49;;;;;;;27.67;19.33;;;;;;;0.51;100.00;99122.41;5070690;28;20045;-64
2021/12/05 01:57:37;;;;;;;29.92;19.13;;;;;;;0.54;100.00;99118.84;5075368;28;20103;-65
2021/12/05 02:33:45;;;;;;;40.15;24.02;;;;;;;0.55;100.00;99143.84;5075483;28;20048;-63
2021/12/05 02:41:27;;;;;;;35.97;22.88;;;;;;;0.47;100.00;99144.16;5087340;28;20127;-64
2021/12/05 02:44:00;;;;;;;38.53;26.35;;;;;;;0.42;100.00;99138.34;5066697;28;20163;-64
2021/12/05 02:46:27;;;;;;;39.00;24.58;;;;;;;0.46;100.00;99145.91;5076493;28;20040;-64
2021/12/05 02:49:00;;;;;;;38.00;25.48;;;;;;;0.45;100.00;99135.59;5068634;28;20088;-65
2021/12/05 02:51:28;;;;;;;40.65;25.27;;;;;;;0.46;100.00;99153.69;5065594;28;20059;-65
2021/12/05 02:54:06;;;;;;;42.55;25.73;;;;;;;0.50;100.00;99163.00;5081225;28;20643;-64
2021/12/05 02:56:38;;;;;;;39.42;26.10;;;;;;;0.48;100.00;99163.97;5071425;28;20055;-65
2021/12/05 02:59:18;;;;;;;37.88;25.40;;;;;;;0.56;100.00;99168.84;5065678;28;20066;-64
2021/12/05 03:01:50;;;;;;;41.70;26.35;;;;;;;0.55;100.00;99174.94;5080036;28;20059;-65
2021/12/05 03:04:18;;;;;;;43.60;26.85;;;;;;;0.57;100.00;99183.47;5082785;28;20059;-64
2021/12/05 03:06:53;;;;;;;43.42;26.00;;;;;;;0.59;100.00;99186.84;5066428;28;20139;-64
2021/12/05 03:09:21;;;;;;;40.10;26.80;;;;;;;0.62;100.00;99190.13;5076699;28;20109;-65
2021/12/05 03:11:51;;;;;;;39.08;25.08;;;;;;;0.64;100.00;99187.50;5081286;28;20045;-64
2021/12/05 03:14:18;;;;;;;41.50;26.92;;;;;;;0.60;100.00;99185.94;5073562;28;20071;-64
2021/12/05 03:16:46;;;;;;;40.35;27.25;;;;;;;0.57;100.00;99186.88;5071735;28;20523;-64
2021/12/05 03:19:14;;;;;;;43.17;28.10;;;;;;;0.58;100.00;99177.38;5075312;28;20131;-64
2021/12/05 03:21:42;;;;;;;42.22;27.40;;;;;;;0.53;100.00;99182.75;5082377;28;20139;-64
2021/12/05 03:24:11;;;;;;;43.10;28.10;;;;;;;0.52;100.00;99183.66;5074988;28;20182;-64
2021/12/05 03:26:41;;;;;;;44.92;27.70;;;;;;;0.48;100.00;99188.09;5071081;28;20089;-65
2021/12/05 03:29:10;;;;;;;41.45;28.23;;;;;;;0.48;100.00;99192.44;5084712;28;20052;-64
2021/12/05 03:31:37;;;;;;;41.60;28.52;;;;;;;0.45;100.00;99189.97;5079139;28;20900;-62
2021/12/05 03:34:06;;;;;;;45.38;28.13;;;;;;;0.53;100.00;99185.31;5075606;28;20053;-65
2021/12/05 03:36:34;;;;;;;40.08;27.02;;;;;;;0.49;100.00;99194.97;5080415;28;20076;-63
2021/12/05 03:39:03;;;;;;;41.85;27.25;;;;;;;0.48;100.00;99192.44;5080158;28;20055;-62
2021/12/05 03:41:31;;;;;;;43.03;27.85;;;;;;;0.52;100.00;99201.78;5060666;28;20088;-63
2021/12/05 03:43:59;;;;;;;44.10;27.58;;;;;;;0.56;100.00;99199.91;5075448;28;20054;-65
2021/12/05 03:46:27;;;;;;;44.50;28.50;;;;;;;0.58;100.00;99205.84;5061766;28;20181;-65
2021/12/05 03:48:58;;;;;;;42.70;28.52;;;;;;;0.62;100.00;99220.38;5061131;28;20076;-62
2021/12/05 03:51:30;;;;;;;46.88;28.15;;;;;;;0.61;100.00;99227.28;5064819;28;20071;-63
2021/12/05 03:53:58;;;;;;;42.55;28.45;;;;;;;0.64;100.00;99228.94;5083935;28;20155;-63
2021/12/05 03:56:25;;;;;;;46.58;28.73;;;;;;;0.68;100.00;99235.69;5084770;28;20055;-64
2021/12/05 03:58:54;;;;;;;49.78;29.83;;;;;;;0.69;100.00;99233.00;5084145;28;20052;-65
2021/12/05 04:01:24;;;;;;;39.70;26.95;;;;;;;0.71;100.00;99235.53;5058956;28;20053;-65
2021/12/05 04:03:52;;;;;;;46.00;28.80;;;;;;;0.75;100.00;99245.69;5053838;28;20136;-62
2021/12/05 04:06:21;;;;;;;46.33;28.17;;;;;;;0.78;100.00;99251.69;5065197;28;20158;-64
2021/12/05 04:08:49;;;;;;;46.40;27.50;;;;;;;0.73;100.00;99251.88;5061967;28;20135;-65
2021/12/05 04:11:22;;;;;;;42.40;27.30;;;;;;;0.76;100.00;99255.16;5083798;28;20055;-65
2021/12/05 04:13:50;;;;;;;48.03;28.33;;;;;;;0.79;100.00;99258.53;5089195;28;20052;-65
2021/12/05 04:16:17;;;;;;;46.33;27.33;;;;;;;0.74;100.00;99264.75;5073347;28;20128;-64
2021/12/05 04:18:46;;;;;;;44.45;29.00;;;;;;;0.76;100.00;99268.09;5076457;28;20087;-64
2021/12/05 04:21:16;;;;;;;43.25;27.75;;;;;;;0.78;100.00;99264.63;5079812;28;20075;-64
2021/12/05 04:23:44;;;;;;;45.22;28.42;;;;;;;0.78;100.00;99260.28;5073494;28;20127;-63
2021/12/05 04:26:12;;;;;;;44.80;27.85;;;;;;;0.79;100.00;99261.13;5085340;28;20044;-64
2021/12/05 04:28:40;;;;;;;46.88;29.58;;;;;;;0.73;100.00;99259.63;5076190;28;20055;-65
2021/12/05 04:31:09;;;;;;;46.72;28.65;;;;;;;0.73;100.00;99259.63;5062057;28;20135;-63
2021/12/05 04:33:37;;;;;;;45.40;28.77;;;;;;;0.71;100.00;99254.50;5083548;28;20076;-63
2021/12/05 04:36:05;;;;;;;45.75;29.00;;;;;;;0.69;100.00;99263.25;5076185;28;20052;-63
2021/12/05 04:38:33;;;;;;;46.75;28.70;;;;;;;0.70;100.00;99260.59;5075700;28;20054;-64
2021/12/05 04:41:01;;;;;;;44.25;28.42;;;;;;;0.71;100.00;99259.69;5071233;28;20036;-65
2021/12/05 04:43:36;;;;;;;42.83;28.25;;;;;;;0.75;100.00;99257.81;5075545;28;20081;-63
2021/12/05 04:46:09;;;;;;;45.75;29.10;;;;;;;0.76;100.00;99251.72;5079484;28;20147;-65
2021/12/05 04:48:37;;;;;;;46.25;28.73;;;;;;;0.74;100.00;99256.97;5080953;28;20418;-63
2021/12/05 04:51:05;;;;;;;43.65;28.10;;;;;;;0.71;100.00;99271.78;5064626;28;20048;-64
2021/12/05 04:53:32;;;;;;;48.80;28.30;;;;;;;0.73;100.00;99267.41;5075137;28;20143;-68
2021/12/05 04:56:00;;;;;;;44.80;27.73;;;;;;;0.68;100.00;99269.34;5078095;28;20068;-63
2021/12/05 04:58:27;;;;;;;49.28;30.55;;;;;;;0.63;100.00;99268.66;5083271;28;20047;-62
2021/12/05 05:00:57;;;;;;;45.97;28.65;;;;;;;0.62;100.00;99277.34;5081337;28;20051;-63
2021/12/05 05:03:25;;;;;;;43.92;29.45;;;;;;;0.59;100.00;99273.13;5077591;28;20050;-64
2021/12/05 05:06:01;;;;;;;45.85;29.00;;;;;;;0.57;100.00;99268.91;5058296;28;20105;-63
2021/12/05 05:08:30;;;;;;;;;;;;;;;0.62;100.00;99272.16;5052723;28;20668;-64
2021/12/05 05:11:00;;;;;;;45.55;28.58;;;;;;;0.63;100.00;99266.94;5075184;28;20020;-65
2021/12/05 05:13:29;;;;;;;43.20;28.25;;;;;;;0.61;100.00;99267.88;5059085;28;20075;-64
2021/12/05 05:15:57;;;;;;;42.50;27.75;;;;;;;0.63;100.00;99274.72;5075240;28;20143;-63
2021/12/05 05:18:28;;;;;;;45.08;29.98;;;;;;;0.66;100.00;99279.75;5076936;28;20416;-64
2021/12/05 05:21:44;;;;;;;47.70;29.58;;;;;;;0.64;100.00;99276.38;5059326;28;20152;-64
2021/12/05 05:24:07;;;;;;;47.97;28.63;;;;;;;0.61;100.00;99281.69;5079192;28;20036;-64
2021/12/05 05:40:24;;;;;;;46.80;29.13;;;;;;;0.67;100.00;99309.91;5078580;28;20566;-64
2021/12/05 05:45:49;;;;;;;52.60;31.80;;;;;;;0.70;100.00;99330.53;5085212;28;20066;-63
2021/12/05 05:50:46;;;;;;;45.75;31.35;;;;;;;0.67;100.00;99330.63;5076099;28;20532;-65
2021/12/05 05:53:13;;;;;;;46.30;30.02;;;;;;;0.69;100.00;99340.94;5079616;28;20110;-64
2021/12/05 05:55:40;;;;;;;48.33;29.95;;;;;;;0.65;100.00;99341.97;5084534;28;20075;-63
2021/12/05 05:58:12;;;;;;;50.03;31.27;;;;;;;0.63;100.00;99342.03;5082220;28;20055;-65
2021/12/05 06:00:52;;;;;;;46.38;29.17;;;;;;;0.65;100.00;99336.78;5073373;28;20673;-64
2021/12/05 06:03:23;;;;;;;48.00;30.95;;;;;;;0.65;100.00;99341.97;5072488;28;20138;-65
2021/12/05 06:05:53;;;;;;;55.40;32.92;;;;;;;0.57;100.00;99339.66;5053560;28;20144;-62
2021/12/05 06:08:24;;;;;;;50.45;31.98;;;;;;;0.54;100.00;99333.75;5066125;28;20134;-63
2021/12/05 06:10:57;;;;;;;50.67;32.25;;;;;;;0.55;100.00;99340.66;5076747;28;20056;-65
2021/12/05 06:13:25;;;;;;;51.10;31.70;;;;;;;0.58;100.00;99343.09;5077833;28;20044;-64
2021/12/05 06:15:53;;;;;;;53.58;32.53;;;;;;;0.63;100.00;99341.16;5071164;28;20136;-63
2021/12/05 06:18:20;;;;;;;48.65;33.30;;;;;;;0.64;100.00;99348.06;5077193;28;20147;-63
2021/12/05 06:20:49;;;;;;;53.42;32.88;;;;;;;0.67;100.00;99347.91;5072404;28;20675;-63
2021/12/05 06:23:16;;;;;;;51.45;30.80;;;;;;;0.68;100.00;99357.41;5074439;28;20044;-63
2021/12/05 06:25:48;;;;;;;48.88;30.77;;;;;;;0.65;100.00;99360.09;5082659;28;20656;-64
2021/12/05 06:28:16;;;;;;;48.63;31.08;;;;;;;0.63;100.00;99359.31;5072248;28;20048;-64
2021/12/05 06:41:59;;;;;;;;;;;;;;;0.53;100.00;99386.47;5078469;28;20758;-65
2021/12/05 06:47:13;;;;;;;;;;;;;;;0.50;100.00;99393.44;5081610;28;20122;-63
2021/12/05 06:49:42;;;;;;;49.75;31.40;;;;;;;0.46;100.00;99406.56;5076205;28;20042;-64
2021/12/05 06:52:29;;;;;;;50.25;31.85;;;;;;;0.43;100.00;99411.84;5084604;28;20052;-64
2021/12/05 06:54:56;;;;;;;51.55;31.70;;;;;;;0.50;100.00;99416.75;5073694;28;20062;-64
2021/12/05 06:57:23;;;;;;;52.55;32.40;;;;;;;0.54;100.00;99426.97;5080202;28;20052;-63
2021/12/05 06:59:50;;;;;;;50.15;31.77;;;;;;;0.55;100.00;99436.47;5061174;28;20063;-63
2021/12/05 07:02:19;;;;;;;53.97;33.28;;;;;;;0.57;100.00;99434.66;5067552;28;20139;-65
2021/12/05 07:04:58;;;;;;;49.17;31.15;;;;;;;0.55;100.00;99439.88;5066764;28;20050;-66
2021/12/05 07:07:29;;;;;;;49.00;31.73;;;;;;;0.52;100.00;99437.41;5081607;28;20048;-63
2021/12/05 07:09:56;;;;;;;51.33;31.45;;;;;;;0.50;100.00;99447.00;5082440;28;20171;-65
2021/12/05 07:14:56;;;;;;;46.75;30.70;;;;;;;0.50;100.00;99450.41;5077468;28;20067;-62
2021/12/05 07:20:24;;;;;;;44.03;29.58;;;;;;;0.54;100.00;99448.56;5078242;28;20150;-64
2021/12/05 07:25:30;;;;;;;49.88;31.05;;;;;;;0.61;100.00;99470.72;5078513;28;20046;-63
2021/12/05 07:41:54;;;;;;;56.47;32.85;;;;;;;0.64;100.00;99478.41;5074289;28;20083;-64
2021/12/05 07:44:21;;;;;;;51.53;31.55;;;;;;;0.66;100.00;99493.88;5074275;28;20041;-64
2021/12/05 07:46:48;;;;;;;50.30;32.03;;;;;;;0.70;100.00;99483.34;5075730;28;20048;-64
2021/12/05 07:49:17;;;;;;;52.63;30.95;;;;;;;0.66;100.00;99501.63;5077279;28;20048;-63
2021/12/05 07:51:47;;;;;;;50.30;32.28;;;;;;;0.68;100.00;99508.47;5076529;28;20060;-62
2021/12/05 07:54:29;;;;;;;50.92;32.20;;;;;;;0.67;100.00;99518.88;5073898;28;20131;-64
2021/12/05 07:57:12;;;;;;;55.67;31.65;;;;;;;0.61;100.00;99521.69;5078966;28;20488;-64
2021/12/05 08:00:08;;;;;;;52.33;31.38;;;;;;;0.62;100.00;99528.53;5080893;28;21173;-64
2021/12/05 08:16:29;;;;;;;56.90;33.25;;;;;;;0.70;100.00;99513.59;5082198;28;20123;-65
2021/12/05 08:18:56;;;;;;;50.03;31.45;;;;;;;0.76;100.00;99514.19;5070561;28;20056;-63
2021/12/05 08:21:23;;;;;;;57.65;33.88;;;;;;;0.80;100.00;99522.69;5072793;28;20059;-62
2021/12/05 08:24:19;;;;;;;49.25;30.05;;;;;;;0.78;100.00;99534.03;5074704;28;20070;-64
2021/12/05 08:26:51;;;;;;;55.08;32.92;;;;;;;0.87;100.00;99529.34;5075189;28;20373;-65
2021/12/05 08:29:26;;;;;;;55.22;33.35;;;;;;;0.92;100.00;99540.41;5072161;28;20098;-64
2021/12/05 08:37:48;;;;;;;57.67;33.67;;;;;;;1.04;100.00;99541.69;5060783;28;20700;-65
2021/12/05 08:43:09;;;;;;;62.58;33.05;;;;;;;1.15;100.00;99544.72;5061145;28;20062;-65
2021/12/05 08:45:58;;;;;;;61.33;33.33;;;;;;;1.25;100.00;99553.00;5075237;28;20052;-66
2021/12/05 09:24:36;;;;;;;58.03;33.92;;;;;;;1.55;100.00;99589.03;5066044;28;20052;-66
2021/12/05 09:40:35;;;;;;;59.80;34.30;;;;;;;1.57;100.00;99614.00;5079570;28;20533;-62
2021/12/05 10:02:46;;;;;;;62.65;35.03;;;;;;;1.80;100.00;99617.44;5076643;28;20109;-66
2021/12/05 10:11:15;;;;;;;66.97;34.70;;;;;;;2.02;100.00;99633.88;5077885;28;20057;-63
2021/12/05 10:13:59;;;;;;;63.72;35.28;;;;;;;2.00;100.00;99636.53;5082886;28;20251;-67
2021/12/05 10:34:02;;;;;;;68.93;36.47;;;;;;;2.57;100.00;99631.63;5070155;28;20087;-65
2021/12/05 10:36:34;;;;;;;62.47;36.72;;;;;;;2.56;100.00;99642.06;5067528;28;20600;-64
2021/12/05 10:39:09;;;;;;;67.57;36.33;;;;;;;2.59;100.00;99647.16;5046943;28;20071;-64
2021/12/05 10:44:11;;;;;;;65.65;37.10;;;;;;;2.55;100.00;99654.22;5064016;28;20543;-65
2021/12/05 10:46:40;;;;;;;61.97;34.40;;;;;;;2.46;100.00;99647.66;5067422;28;20052;-65
2021/12/05 10:49:10;;;;;;;58.65;33.00;;;;;;;2.43;100.00;99660.78;5059342;28;20060;-64
2021/12/05 10:51:49;;;;;;;60.33;33.10;;;;;;;2.34;100.00;99658.53;5070134;28;20079;-64
2021/12/05 10:54:19;;;;;;;57.35;31.83;;;;;;;2.35;100.00;99657.66;5063587;28;20575;-65
2021/12/05 10:56:51;;;;;;;64.10;33.80;;;;;;;2.39;100.00;99661.81;5071177;28;20115;-64
2021/12/05 10:59:35;;;;;;;59.85;32.08;;;;;;;2.42;100.00;99658.22;5061192;28;20468;-64
2021/12/05 11:02:08;;;;;;;61.78;32.42;;;;;;;2.51;100.00;99658.69;5057099;28;20064;-64
2021/12/05 11:04:40;;;;;;;54.70;31.25;;;;;;;2.63;100.00;99646.13;5065208;28;20405;-65
2021/12/05 11:07:13;;;;;;;55.88;33.03;;;;;;;2.64;100.00;99658.19;5046344;28;20045;-63
2021/12/05 11:09:43;;;;;;;56.30;33.25;;;;;;;2.65;100.00;99665.06;5059937;28;20055;-65
2021/12/05 11:12:18;;;;;;;52.40;30.95;;;;;;;2.65;100.00;99665.06;5048571;28;20052;-63
2021/12/05 11:14:55;;;;;;;58.60;32.75;;;;;;;2.67;100.00;99666.72;5050029;28;20056;-62
2021/12/05 11:17:30;;;;;;;59.05;30.50;;;;;;;2.60;100.00;99667.03;5042577;28;20058;-63
2021/12/05 11:19:59;;;;;;;57.90;32.13;;;;;;;2.58;100.00;99668.84;5047386;28;20048;-66
2021/12/05 11:22:34;;;;;;;60.42;33.33;;;;;;;2.55;100.00;99672.41;5069293;28;20054;-65
2021/12/05 11:25:09;;;;;;;60.28;33.58;;;;;;;2.47;100.00;99680.50;5056982;28;20892;-65
2021/12/05 11:27:42;;;;;;;58.90;31.77;;;;;;;2.34;100.00;99681.91;5048055;28;20040;-64
2021/12/05 11:30:21;;;;;;;60.58;32.13;;;;;;;2.39;100.00;99684.34;5056336;28;20101;-65
2021/12/05 11:32:54;;;;;;;59.22;32.88;;;;;;;2.39;100.00;99677.41;5029259;28;20094;-64
2021/12/05 11:35:42;;;;;;;59.42;32.17;;;;;;;2.35;100.00;99678.44;5040670;28;20068;-66
2021/12/05 11:38:13;;;;;;;58.03;33.08;;;;;;;2.25;100.00;99682.28;5062652;28;20056;-65
2021/12/05 11:41:11;;;;;;;68.88;38.50;;;;;;;2.13;100.00;99688.81;5062369;28;20055;-63
2021/12/05 11:43:53;;;;;;;66.70;37.17;;;;;;;2.15;100.00;99686.16;5058314;28;20060;-65
2021/12/05 11:46:35;;;;;;;57.80;34.22;;;;;;;2.03;100.00;99688.34;5061264;28;20139;-64
2021/12/05 11:49:10;;;;;;;64.88;35.30;;;;;;;2.05;100.00;99695.22;5045358;28;20083;-66
2021/12/05 11:51:41;;;;;;;64.07;34.47;;;;;;;2.07;100.00;99686.44;5061427;28;20056;-64
2021/12/05 11:54:24;;;;;;;62.10;34.83;;;;;;;2.05;100.00;99693.47;5057758;28;20065;-67
2021/12/05 11:57:15;;;;;;;63.85;35.58;;;;;;;1.96;100.00;99686.88;5063325;28;20720;-64
2021/12/05 11:59:56;;;;;;;66.68;36.13;;;;;;;2.03;100.00;99675.38;5066595;28;20511;-62
2021/12/05 12:02:35;;;;;;;66.57;36.72;;;;;;;2.09;100.00;99673.44;5066614;28;20155;-64
2021/12/05 12:05:13;;;;;;;66.20;36.08;;;;;;;2.16;100.00;99680.94;5058225;28;20050;-65
2021/12/05 12:08:07;;;;;;;62.03;34.58;;;;;;;2.16;100.00;99677.44;5073307;28;20052;-65
2021/12/05 12:10:41;;;;;;;65.20;35.03;;;;;;;2.07;100.00;99676.06;5068980;28;20055;-65
2021/12/05 12:13:10;;;;;;;62.55;34.70;;;;;;;2.03;100.00;99685.75;5033111;28;20103;-63
2021/12/05 12:15:39;;;;;;;67.30;37.63;;;;;;;1.96;100.00;99692.06;5064537;28;20522;-65
2021/12/05 12:18:15;;;;;;;69.13;38.78;;;;;;;1.95;100.00;99684.34;5051184;28;20048;-66
2021/12/05 12:20:46;;;;;;;70.93;41.70;;;;;;;1.84;100.00;99687.34;5067456;28;20171;-62
2021/12/05 12:23:16;;;;;;;75.63;41.65;;;;;;;1.78;100.00;99683.22;5044063;28;20144;-63
2021/12/05 12:25:46;;;;;;;77.68;43.10;;;;;;;1.74;100.00;99686.84;5056942;28;20053;-65
2021/12/05 12:28:14;;;;;;;78.45;45.17;;;;;;;1.75;100.00;99688.53;5063269;28;20391;-65
2021/12/05 12:30:44;;;;;;;69.68;40.22;;;;;;;1.79;100.00;99691.88;5043612;28;20056;-66
2021/12/05 12:33:17;;;;;;;71.50;41.80;;;;;;;1.82;100.00;99696.09;5063700;28;20051;-64
2021/12/05 12:35:45;;;;;;;75.03;40.97;;;;;;;1.84;100.00;99694.28;5052007;28;20060;-64
2021/12/05 12:38:19;;;;;;;71.47;39.95;;;;;;;1.88;100.00;99693.25;5060433;28;20539;-65
2021/12/05 12:40:50;;;;;;;71.05;39.47;;;;;;;1.96;100.00;99683.44;5067441;28;20056;-63
2021/12/05 12:43:48;;;;;;;68.82;38.45;;;;;;;2.05;100.00;99695.22;5069965;28;20051;-63
2021/12/05 12:46:18;;;;;;;69.88;39.83;;;;;;;1.94;100.00;99703.44;5060437;28;20048;-64
2021/12/05 12:48:46;;;;;;;73.45;40.92;;;;;;;2.00;100.00;99717.00;5062891;28;20060;-64
2021/12/05 12:51:32;;;;;;;69.63;40.60;;;;;;;1.95;100.00;99720.69;5064855;28;20058;-63
2021/12/05 12:54:03;;;;;;;63.20;38.20;;;;;;;1.95;100.00;99721.53;5062937;28;20040;-62
2021/12/05 12:56:30;;;;;;;63.58;37.67;;;;;;;1.98;100.00;99724.03;5062438;28;20050;-66
2021/12/05 12:59:20;;;;;;;63.67;36.55;;;;;;;1.99;100.00;99725.69;5067022;28;20062;-66
2021/12/05 13:04:34;;;;;;;64.70;35.88;;;;;;;2.06;100.00;99734.09;5066201;28;20161;-68
2021/12/05 13:10:09;;;;;;;62.05;35.15;;;;;;;2.14;100.00;99734.66;5060738;28;20056;-66
2021/12/05 13:12:44;;;;;;;60.75;36.25;;;;;;;2.37;100.00;99728.56;5059676;28;20048;-66
2021/12/05 13:15:30;;;;;;;62.10;36.70;;;;;;;2.51;100.00;99722.81;5056692;28;20056;-66
2021/12/05 13:18:23;;;;;;;60.28;35.30;;;;;;;2.47;100.00;99719.47;5064169;28;20078;-67
2021/12/05 13:20:56;;;;;;;60.75;35.72;;;;;;;2.36;100.00;99728.63;5056058;28;20052;-66
2021/12/05 13:23:31;;;;;;;68.15;37.38;;;;;;;2.28;100.00;99737.56;5060642;28;20079;-67
2021/12/05 13:26:23;;;;;;;66.82;36.92;;;;;;;2.13;100.00;99735.56;5037230;28;20044;-66
2021/12/05 13:29:11;;;;;;;69.63;37.60;;;;;;;2.07;100.00;99740.13;5061570;28;20058;-67
2021/12/05 13:31:53;;;;;;;70.35;39.58;;;;;;;2.03;100.00;99736.81;5067770;28;20738;-67
2021/12/05 13:34:28;;;;;;;65.85;36.85;;;;;;;1.95;100.00;99741.47;5069421;28;20142;-67
2021/12/05 13:36:57;;;;;;;68.00;38.45;;;;;;;1.84;100.00;99739.25;5065458;28;20124;-67
2021/12/05 13:39:40;;;;;;;69.20;39.38;;;;;;;1.84;100.00;99749.63;5049446;28;20059;-67
2021/12/05 13:42:12;;;;;;;71.38;39.33;;;;;;;1.81;100.00;99752.34;5066782;28;20954;-66
2021/12/05 13:45:03;;;;;;;69.20;37.97;;;;;;;1.73;100.00;99750.03;5065298;28;20078;-66
2021/12/05 13:47:52;;;;;;;76.38;41.75;;;;;;;1.68;100.00;99751.94;5066063;28;20048;-67
2021/12/05 13:50:23;;;;;;;73.97;38.38;;;;;;;1.64;100.00;99770.28;5043823;28;20067;-66
2021/12/05 13:53:00;;;;;;;73.30;40.55;;;;;;;1.60;100.00;99771.28;5064599;28;20044;-67
2021/12/05 13:55:53;;;;;;;72.95;41.50;;;;;;;1.58;100.00;99767.91;5030463;28;20052;-67
2021/12/05 13:58:24;;;;;;;77.75;39.33;;;;;;;1.57;100.00;99769.63;5064534;28;20044;-66
2021/12/05 14:01:11;;;;;;;75.30;41.08;;;;;;;1.54;100.00;99772.38;5068094;28;20131;-67
2021/12/05 14:03:53;;;;;;;72.82;39.15;;;;;;;1.55;100.00;99773.19;5057756;28;20836;-65
2021/12/05 14:06:26;;;;;;;78.85;42.58;;;;;;;1.55;100.00;99778.38;5060688;28;20045;-66
2021/12/05 14:09:00;;;;;;;70.53;40.47;;;;;;;1.59;100.00;99787.75;5055055;28;20040;-66
2021/12/05 14:11:27;;;;;;;78.35;41.17;;;;;;;1.63;100.00;99791.94;5069795;28;20080;-65
2021/12/05 14:13:55;;;;;;;68.80;38.90;;;;;;;1.63;100.00;99790.19;5067311;28;20550;-65
2021/12/05 14:16:36;;;;;;;71.80;41.38;;;;;;;1.62;100.00;99805.78;5065837;28;20120;-65
2021/12/05 14:19:06;;;;;;;72.35;40.53;;;;;;;1.61;100.00;99819.66;5069775;28;20049;-66
2021/12/05 14:21:38;;;;;;;72.15;40.67;;;;;;;1.60;100.00;99829.19;5064303;28;20048;-65
2021/12/05 14:24:06;;;;;;;66.90;38.40;;;;;;;1.57;100.00;99834.50;5067758;28;20055;-66
2021/12/05 14:26:38;;;;;;;65.40;37.40;;;;;;;1.52;100.00;99841.59;5066206;28;20056;-65
2021/12/05 14:29:17;;;;;;;70.18;38.35;;;;;;;1.48;100.00;99852.97;5067078;28;21051;-66
2021/12/05 14:31:51;;;;;;;67.65;38.05;;;;;;;1.50;100.00;99858.97;5060601;28;20506;-68
2021/12/05 14:34:18;;;;;;;64.72;36.53;;;;;;;1.45;100.00;99858.28;5059439;28;20163;-67
2021/12/05 14:36:55;;;;;;;64.68;38.00;;;;;;;1.38;100.00;99865.41;5055703;28;20064;-66
2021/12/05 14:39:31;;;;;;;69.47;37.65;;;;;;;1.39;100.00;99868.84;5077676;28;20058;-66
2021/12/05 14:42:01;;;;;;;64.68;38.15;;;;;;;1.33;100.00;99877.66;5061138;28;20061;-66
2021/12/05 14:44:29;;;;;;;64.63;38.30;;;;;;;1.33;100.00;99876.81;5054336;28;20125;-66
2021/12/05 14:47:03;;;;;;;63.17;36.22;;;;;;;1.34;100.00;99886.28;5057172;28;20401;-66
2021/12/05 14:49:35;;;;;;;64.07;38.40;;;;;;;1.39;100.00;99897.34;5068640;28;20142;-66
2021/12/05 14:52:04;;;;;;;65.47;36.95;;;;;;;1.34;100.00;99897.50;5067575;28;20131;-65
2021/12/05 14:54:35;;;;;;;67.85;38.75;;;;;;;1.31;100.00;99909.75;5050737;28;20056;-65
2021/12/05 14:57:12;;;;;;;67.40;39.15;;;;;;;1.30;100.00;99914.06;5062469;28;20807;-65
2021/12/05 14:59:41;;;;;;;67.82;38.88;;;;;;;1.29;100.00;99919.31;5064498;28;20155;-65
2021/12/05 15:02:09;;;;;;;62.55;36.70;;;;;;;1.23;100.00;99918.63;5063593;28;20155;-66
2021/12/05 15:04:46;;;;;;;68.18;39.55;;;;;;;1.26;100.00;99925.44;5070557;28;20071;-66
2021/12/05 15:07:12;;;;;;;;;;;;;;;1.23;100.00;99928.97;5072430;28;20049;-66
2021/12/05 15:09:44;;;;;;;69.38;40.00;;;;;;;1.23;100.00;99928.97;5068845;28;19938;-65
2021/12/05 15:12:21;;;;;;;72.30;39.13;;;;;;;1.27;100.00;99929.75;5068547;28;20160;-65
2021/12/05 15:14:52;;;;;;;69.03;38.88;;;;;;;1.23;100.00;99928.97;5059758;28;20063;-66
2021/12/05 15:17:22;;;;;;;69.15;37.97;;;;;;;1.25;100.00;99926.34;5066354;28;21142;-66
2021/12/05 15:19:54;;;;;;;65.10;38.35;;;;;;;1.20;100.00;99928.22;5066257;28;20056;-65
2021/12/05 15:22:40;;;;;;;65.38;38.80;;;;;;;1.16;100.00;99930.06;5065371;28;20060;-66
2021/12/05 15:25:14;;;;;;;67.30;39.22;;;;;;;1.13;100.00;99927.59;5064844;28;20060;-65
2021/12/05 15:27:42;;;;;;;73.65;41.25;;;;;;;1.08;100.00;99934.66;5047083;28;20059;-65
2021/12/05 15:30:26;;;;;;;76.13;42.10;;;;;;;1.07;100.00;99934.69;5055196;28;20062;-66
2021/12/05 15:32:56;;;;;;;71.50;41.17;;;;;;;1.00;100.00;99934.88;5076028;28;20139;-65
2021/12/05 15:35:24;;;;;;;72.70;40.80;;;;;;;0.97;100.00;99941.91;5076286;28;20123;-67
2021/12/05 15:37:58;;;;;;;77.88;42.42;;;;;;;0.95;100.00;99949.75;5057850;28;20044;-65
2021/12/05 15:40:27;;;;;;;75.90;40.53;;;;;;;1.01;100.00;99953.88;5040584;28;20862;-65
2021/12/05 15:43:18;;;;;;;75.03;41.13;;;;;;;0.98;100.00;99941.84;5057676;28;20053;-65
2021/12/05 15:45:47;;;;;;;75.40;42.20;;;;;;;0.97;100.00;99936.72;5051078;28;20489;-65
2021/12/05 15:48:30;;;;;;;76.15;42.13;;;;;;;0.99;100.00;99951.34;5064052;28;20137;-65
2021/12/05 15:50:59;;;;;;;86.03;42.55;;;;;;;1.01;100.00;99952.13;5062377;28;20060;-65
2021/12/05 15:53:27;;;;;;;76.65;41.85;;;;;;;1.00;100.00;99947.84;5065412;28;20057;-65
2021/12/05 15:55:59;;;;;;;77.15;41.47;;;;;;;1.01;100.00;99946.94;5047147;28;20565;-65
2021/12/05 15:58:41;;;;;;;72.20;41.25;;;;;;;1.05;100.00;99950.31;5061589;28;20053;-66
2021/12/05 16:01:14;;;;;;;73.32;40.30;;;;;;;1.05;100.00;99949.47;5064542;28;20052;-66
2021/12/05 16:03:45;;;;;;;79.93;43.03;;;;;;;1.03;100.00;99949.47;5057570;28;20058;-67
2021/12/05 16:06:15;;;;;;;80.00;41.55;;;;;;;1.01;100.00;99949.53;5062215;28;20132;-65
2021/12/05 16:08:44;;;;;;;77.28;41.25;;;;;;;1.03;100.00;99952.06;5053444;28;20052;-65
2021/12/05 16:11:14;;;;;;;81.40;41.95;;;;;;;1.05;100.00;99960.66;5065301;28;20411;-65
2021/12/05 16:13:43;;;;;;;84.35;43.85;;;;;;;1.02;100.00;99966.78;5061096;28;20043;-64
2021/12/05 16:16:24;;;;;;;80.78;42.42;;;;;;;1.02;100.00;99966.78;5061240;28;20544;-66
2021/12/05 16:18:56;;;;;;;83.00;41.40;;;;;;;1.00;100.00;99970.34;5066612;28;20048;-64
2021/12/05 16:21:34;;;;;;;84.15;43.70;;;;;;;0.94;100.00;99980.88;5065572;28;20060;-65
2021/12/05 16:24:19;;;;;;;78.72;41.53;;;;;;;0.97;100.00;99981.63;5064899;28;20064;-65
2021/12/05 16:26:48;;;;;;;77.90;40.28;;;;;;;0.99;100.00;99981.56;5060716;28;20059;-65